sensor_id;sensor_type;location;lat;lon;timestamp;P1;durP1;ratioP1;P2;durP2;ratioP2
21299;SDS011;10809;49.476;11.016;2022-12-29T00:02:19;2.33;;;0.80;;
21299;SDS011;10809;49.476;11.016;2022-12-29T00:04:50;1.13;;;0.77;;
21299;SDS011;10809;49.476;11.016;2022-12-29T00:07:21;2.10;;;0.80;;
21299;SDS011;10809;49.476;11.016;2022-12-29T00:09:52;0.70;;;0.70;;
21299;SDS011;10809;49.476;11.016;2022-12-29T00:12:23;1.07;;;0.73;;
21299;SDS011;10809;49.476;11.016;2022-12-29T00:14:54;0.83;;;0.80;;
21299;SDS011;10809;49.476;11.016;2022-12-29T00:17:43;0.83;;;0.80;;
21299;SDS011;10809;49.476;11.016;2022-12-29T00:20:13;1.23;;;0.67;;
21299;SDS011;10809;49.476;11.016;2022-12-29T00:23:03;1.23;;;0.87;;
21299;SDS011;10809;49.476;11.016;2022-12-29T00:25:52;1.53;;;0.90;;
21299;SDS011;10809;49.476;11.016;2022-12-29T00:28:55;2.50;;;0.90;;
21299;SDS011;10809;49.476;11.016;2022-12-29T00:31:44;0.80;;;0.80;;
21299;SDS011;10809;49.476;11.016;2022-12-29T00:34:33;0.63;;;0.63;;
21299;SDS011;10809;49.476;11.016;2022-12-29T00:37:30;2.60;;;0.73;;
21299;SDS011;10809;49.476;11.016;2022-12-29T00:40:19;1.47;;;0.70;;
21299;SDS011;10809;49.476;11.016;2022-12-29T00:43:09;0.67;;;0.67;;
21299;SDS011;10809;49.476;11.016;2022-12-29T00:45:57;1.93;;;0.97;;
21299;SDS011;10809;49.476;11.016;2022-12-29T00:48:28;1.07;;;0.90;;
21299;SDS011;10809;49.476;11.016;2022-12-29T00:51:17;1.40;;;1.10;;
21299;SDS011;10809;49.476;11.016;2022-12-29T00:53:47;1.40;;;0.80;;
21299;SDS011;10809;49.476;11.016;2022-12-29T00:56:18;0.70;;;0.70;;
21299;SDS011;10809;49.476;11.016;2022-12-29T00:58:48;0.70;;;0.60;;
21299;SDS011;10809;49.476;11.016;2022-12-29T01:01:19;0.67;;;0.60;;
21299;SDS011;10809;49.476;11.016;2022-12-29T01:03:49;1.77;;;0.77;;
21299;SDS011;10809;49.476;11.016;2022-12-29T01:06:19;1.10;;;0.80;;
21299;SDS011;10809;49.476;11.016;2022-12-29T01:08:50;3.80;;;1.43;;
21299;SDS011;10809;49.476;11.016;2022-12-29T01:11:41;2.77;;;0.77;;
21299;SDS011;10809;49.476;11.016;2022-12-29T01:14:12;1.90;;;1.00;;
21299;SDS011;10809;49.476;11.016;2022-12-29T01:16:42;2.57;;;0.97;;
21299;SDS011;10809;49.476;11.016;2022-12-29T01:19:14;0.90;;;0.90;;
21299;SDS011;10809;49.476;11.016;2022-12-29T01:21:45;0.97;;;0.70;;
21299;SDS011;10809;49.476;11.016;2022-12-29T01:24:17;1.23;;;1.00;;
21299;SDS011;10809;49.476;11.016;2022-12-29T01:26:50;1.10;;;1.00;;
21299;SDS011;10809;49.476;11.016;2022-12-29T01:29:20;0.80;;;0.80;;
21299;SDS011;10809;49.476;11.016;2022-12-29T01:31:51;1.27;;;0.73;;
21299;SDS011;10809;49.476;11.016;2022-12-29T01:34:22;0.93;;;0.70;;
21299;SDS011;10809;49.476;11.016;2022-12-29T01:36:52;2.17;;;0.80;;
21299;SDS011;10809;49.476;11.016;2022-12-29T01:39:23;0.63;;;0.60;;
21299;SDS011;10809;49.476;11.016;2022-12-29T01:41:53;2.27;;;1.00;;
21299;SDS011;10809;49.476;11.016;2022-12-29T01:47:25;1.20;;;0.90;;
21299;SDS011;10809;49.476;11.016;2022-12-29T01:50:02;2.10;;;0.90;;
21299;SDS011;10809;49.476;11.016;2022-12-29T01:52:41;1.17;;;0.80;;
21299;SDS011;10809;49.476;11.016;2022-12-29T01:55:19;1.70;;;0.87;;
21299;SDS011;10809;49.476;11.016;2022-12-29T01:57:50;3.97;;;0.80;;
21299;SDS011;10809;49.476;11.016;2022-12-29T02:00:22;0.80;;;0.80;;
21299;SDS011;10809;49.476;11.016;2022-12-29T02:02:53;0.87;;;0.80;;
21299;SDS011;10809;49.476;11.016;2022-12-29T02:08:06;0.77;;;0.60;;
21299;SDS011;10809;49.476;11.016;2022-12-29T02:10:39;2.83;;;0.80;;
21299;SDS011;10809;49.476;11.016;2022-12-29T02:13:14;0.73;;;0.70;;
21299;SDS011;10809;49.476;11.016;2022-12-29T02:18:47;1.43;;;0.80;;
21299;SDS011;10809;49.476;11.016;2022-12-29T02:27:03;0.90;;;0.80;;
21299;SDS011;10809;49.476;11.016;2022-12-29T02:30:05;1.03;;;0.77;;
21299;SDS011;10809;49.476;11.016;2022-12-29T02:32:38;1.10;;;0.97;;
21299;SDS011;10809;49.476;11.016;2022-12-29T02:35:34;2.93;;;1.10;;
21299;SDS011;10809;49.476;11.016;2022-12-29T02:40:57;0.90;;;0.80;;
21299;SDS011;10809;49.476;11.016;2022-12-29T02:43:44;0.77;;;0.60;;
21299;SDS011;10809;49.476;11.016;2022-12-29T02:49:19;0.80;;;0.73;;
21299;SDS011;10809;49.476;11.016;2022-12-29T02:52:03;1.70;;;1.00;;
21299;SDS011;10809;49.476;11.016;2022-12-29T02:54:38;0.67;;;0.50;;
21299;SDS011;10809;49.476;11.016;2022-12-29T02:57:14;3.00;;;1.20;;
21299;SDS011;10809;49.476;11.016;2022-12-29T02:59:45;1.10;;;0.80;;
21299;SDS011;10809;49.476;11.016;2022-12-29T03:08:28;0.80;;;0.40;;
21299;SDS011;10809;49.476;11.016;2022-12-29T03:11:09;0.60;;;0.60;;
21299;SDS011;10809;49.476;11.016;2022-12-29T03:17:09;0.93;;;0.67;;
21299;SDS011;10809;49.476;11.016;2022-12-29T03:19:49;2.87;;;0.77;;
21299;SDS011;10809;49.476;11.016;2022-12-29T03:22:22;1.37;;;0.90;;
21299;SDS011;10809;49.476;11.016;2022-12-29T03:27:42;1.17;;;1.10;;
21299;SDS011;10809;49.476;11.016;2022-12-29T03:30:17;1.60;;;0.80;;
21299;SDS011;10809;49.476;11.016;2022-12-29T03:32:49;1.60;;;0.80;;
21299;SDS011;10809;49.476;11.016;2022-12-29T03:35:23;1.97;;;0.90;;
21299;SDS011;10809;49.476;11.016;2022-12-29T03:37:59;5.77;;;0.80;;
21299;SDS011;10809;49.476;11.016;2022-12-29T03:40:39;1.93;;;0.70;;
21299;SDS011;10809;49.476;11.016;2022-12-29T03:43:14;1.13;;;0.80;;
21299;SDS011;10809;49.476;11.016;2022-12-29T03:45:45;3.10;;;0.90;;
21299;SDS011;10809;49.476;11.016;2022-12-29T03:48:16;1.00;;;0.70;;
21299;SDS011;10809;49.476;11.016;2022-12-29T03:50:48;1.43;;;1.00;;
21299;SDS011;10809;49.476;11.016;2022-12-29T03:53:19;1.50;;;0.80;;
21299;SDS011;10809;49.476;11.016;2022-12-29T03:55:49;0.80;;;0.80;;
21299;SDS011;10809;49.476;11.016;2022-12-29T03:58:20;2.77;;;1.07;;
21299;SDS011;10809;49.476;11.016;2022-12-29T04:01:11;2.70;;;0.80;;
21299;SDS011;10809;49.476;11.016;2022-12-29T04:03:42;0.60;;;0.60;;
21299;SDS011;10809;49.476;11.016;2022-12-29T04:06:14;2.10;;;0.90;;
21299;SDS011;10809;49.476;11.016;2022-12-29T04:08:52;1.87;;;0.93;;
21299;SDS011;10809;49.476;11.016;2022-12-29T04:11:23;0.80;;;0.80;;
21299;SDS011;10809;49.476;11.016;2022-12-29T04:13:54;1.03;;;0.63;;
21299;SDS011;10809;49.476;11.016;2022-12-29T04:16:28;1.37;;;0.77;;
21299;SDS011;10809;49.476;11.016;2022-12-29T04:18:58;1.00;;;0.73;;
21299;SDS011;10809;49.476;11.016;2022-12-29T04:21:29;0.90;;;0.90;;
21299;SDS011;10809;49.476;11.016;2022-12-29T04:24:01;2.30;;;0.80;;
21299;SDS011;10809;49.476;11.016;2022-12-29T04:26:36;0.93;;;0.67;;
21299;SDS011;10809;49.476;11.016;2022-12-29T04:29:31;0.97;;;0.73;;
21299;SDS011;10809;49.476;11.016;2022-12-29T04:32:07;1.93;;;0.93;;
21299;SDS011;10809;49.476;11.016;2022-12-29T04:34:41;0.70;;;0.50;;
21299;SDS011;10809;49.476;11.016;2022-12-29T04:37:12;4.13;;;0.60;;
21299;SDS011;10809;49.476;11.016;2022-12-29T04:39:43;2.47;;;0.80;;
21299;SDS011;10809;49.476;11.016;2022-12-29T04:42:13;1.00;;;0.87;;
21299;SDS011;10809;49.476;11.016;2022-12-29T04:44:44;1.40;;;0.70;;
21299;SDS011;10809;49.476;11.016;2022-12-29T04:47:18;0.70;;;0.70;;
21299;SDS011;10809;49.476;11.016;2022-12-29T04:49:56;1.20;;;0.60;;
21299;SDS011;10809;49.476;11.016;2022-12-29T04:52:46;1.60;;;1.00;;
21299;SDS011;10809;49.476;11.016;2022-12-29T04:55:18;1.53;;;0.90;;
21299;SDS011;10809;49.476;11.016;2022-12-29T04:57:48;1.03;;;1.00;;
21299;SDS011;10809;49.476;11.016;2022-12-29T05:00:22;1.23;;;0.97;;
21299;SDS011;10809;49.476;11.016;2022-12-29T05:02:53;1.77;;;0.80;;
21299;SDS011;10809;49.476;11.016;2022-12-29T05:05:23;1.37;;;0.70;;
21299;SDS011;10809;49.476;11.016;2022-12-29T05:07:54;1.90;;;0.70;;
21299;SDS011;10809;49.476;11.016;2022-12-29T05:10:25;2.47;;;0.90;;
21299;SDS011;10809;49.476;11.016;2022-12-29T05:12:57;0.97;;;0.60;;
21299;SDS011;10809;49.476;11.016;2022-12-29T05:15:28;1.27;;;0.70;;
21299;SDS011;10809;49.476;11.016;2022-12-29T05:17:58;0.73;;;0.70;;
21299;SDS011;10809;49.476;11.016;2022-12-29T05:20:30;3.00;;;0.80;;
21299;SDS011;10809;49.476;11.016;2022-12-29T05:23:01;1.60;;;1.00;;
21299;SDS011;10809;49.476;11.016;2022-12-29T05:25:32;0.90;;;0.60;;
21299;SDS011;10809;49.476;11.016;2022-12-29T05:28:21;0.70;;;0.70;;
21299;SDS011;10809;49.476;11.016;2022-12-29T05:30:53;1.83;;;0.83;;
21299;SDS011;10809;49.476;11.016;2022-12-29T05:33:23;1.07;;;0.87;;
21299;SDS011;10809;49.476;11.016;2022-12-29T05:35:55;1.37;;;0.70;;
21299;SDS011;10809;49.476;11.016;2022-12-29T05:38:27;0.83;;;0.70;;
21299;SDS011;10809;49.476;11.016;2022-12-29T05:40:58;2.00;;;0.90;;
21299;SDS011;10809;49.476;11.016;2022-12-29T05:43:47;0.83;;;0.83;;
21299;SDS011;10809;49.476;11.016;2022-12-29T05:46:35;0.70;;;0.60;;
21299;SDS011;10809;49.476;11.016;2022-12-29T05:49:32;1.40;;;1.10;;
21299;SDS011;10809;49.476;11.016;2022-12-29T05:52:11;1.10;;;0.70;;
21299;SDS011;10809;49.476;11.016;2022-12-29T05:54:42;1.00;;;0.87;;
21299;SDS011;10809;49.476;11.016;2022-12-29T05:57:16;0.87;;;0.70;;
21299;SDS011;10809;49.476;11.016;2022-12-29T05:59:50;1.33;;;0.60;;
21299;SDS011;10809;49.476;11.016;2022-12-29T06:02:20;1.10;;;1.00;;
21299;SDS011;10809;49.476;11.016;2022-12-29T06:04:52;2.00;;;0.70;;
21299;SDS011;10809;49.476;11.016;2022-12-29T06:07:22;1.90;;;1.10;;
21299;SDS011;10809;49.476;11.016;2022-12-29T06:09:53;1.40;;;1.10;;
21299;SDS011;10809;49.476;11.016;2022-12-29T06:12:24;0.70;;;0.70;;
21299;SDS011;10809;49.476;11.016;2022-12-29T06:14:57;1.23;;;1.00;;
21299;SDS011;10809;49.476;11.016;2022-12-29T06:17:27;1.67;;;0.90;;
21299;SDS011;10809;49.476;11.016;2022-12-29T06:19:58;1.43;;;0.93;;
21299;SDS011;10809;49.476;11.016;2022-12-29T06:22:29;1.73;;;0.80;;
21299;SDS011;10809;49.476;11.016;2022-12-29T06:25:00;1.33;;;0.77;;
21299;SDS011;10809;49.476;11.016;2022-12-29T06:27:31;2.33;;;1.23;;
21299;SDS011;10809;49.476;11.016;2022-12-29T06:30:02;3.00;;;0.80;;
21299;SDS011;10809;49.476;11.016;2022-12-29T06:32:33;0.70;;;0.50;;
21299;SDS011;10809;49.476;11.016;2022-12-29T06:35:07;3.60;;;0.90;;
21299;SDS011;10809;49.476;11.016;2022-12-29T06:37:43;3.17;;;1.10;;
21299;SDS011;10809;49.476;11.016;2022-12-29T06:40:15;1.53;;;0.90;;
21299;SDS011;10809;49.476;11.016;2022-12-29T06:43:04;1.97;;;0.90;;
21299;SDS011;10809;49.476;11.016;2022-12-29T06:46:14;1.83;;;0.80;;
21299;SDS011;10809;49.476;11.016;2022-12-29T06:48:44;2.80;;;0.60;;
21299;SDS011;10809;49.476;11.016;2022-12-29T06:51:15;1.20;;;0.70;;
21299;SDS011;10809;49.476;11.016;2022-12-29T06:53:46;1.13;;;1.00;;
21299;SDS011;10809;49.476;11.016;2022-12-29T06:56:18;1.20;;;1.10;;
21299;SDS011;10809;49.476;11.016;2022-12-29T06:58:49;4.30;;;1.23;;
21299;SDS011;10809;49.476;11.016;2022-12-29T07:01:20;1.47;;;0.90;;
21299;SDS011;10809;49.476;11.016;2022-12-29T07:03:52;2.10;;;1.10;;
21299;SDS011;10809;49.476;11.016;2022-12-29T07:06:23;3.10;;;1.17;;
21299;SDS011;10809;49.476;11.016;2022-12-29T07:08:54;2.87;;;1.17;;
21299;SDS011;10809;49.476;11.016;2022-12-29T07:11:26;2.73;;;1.07;;
21299;SDS011;10809;49.476;11.016;2022-12-29T07:13:57;1.27;;;1.00;;
21299;SDS011;10809;49.476;11.016;2022-12-29T07:16:29;1.00;;;0.90;;
21299;SDS011;10809;49.476;11.016;2022-12-29T07:19:00;2.63;;;1.00;;
21299;SDS011;10809;49.476;11.016;2022-12-29T07:21:31;3.83;;;0.70;;
21299;SDS011;10809;49.476;11.016;2022-12-29T07:24:03;0.73;;;0.50;;
21299;SDS011;10809;49.476;11.016;2022-12-29T07:26:34;2.60;;;0.80;;
21299;SDS011;10809;49.476;11.016;2022-12-29T07:29:06;2.30;;;1.60;;
21299;SDS011;10809;49.476;11.016;2022-12-29T07:31:37;0.90;;;0.70;;
21299;SDS011;10809;49.476;11.016;2022-12-29T07:34:09;1.30;;;0.73;;
21299;SDS011;10809;49.476;11.016;2022-12-29T07:36:41;5.67;;;1.63;;
21299;SDS011;10809;49.476;11.016;2022-12-29T07:39:11;1.53;;;0.80;;
21299;SDS011;10809;49.476;11.016;2022-12-29T07:41:43;1.23;;;0.97;;
21299;SDS011;10809;49.476;11.016;2022-12-29T07:44:20;0.80;;;0.80;;
21299;SDS011;10809;49.476;11.016;2022-12-29T07:47:24;1.63;;;0.90;;
21299;SDS011;10809;49.476;11.016;2022-12-29T07:49:56;1.10;;;0.77;;
21299;SDS011;10809;49.476;11.016;2022-12-29T07:52:28;1.93;;;0.70;;
21299;SDS011;10809;49.476;11.016;2022-12-29T07:54:58;0.70;;;0.70;;
21299;SDS011;10809;49.476;11.016;2022-12-29T07:57:29;1.20;;;0.90;;
21299;SDS011;10809;49.476;11.016;2022-12-29T08:00:00;1.17;;;0.77;;
21299;SDS011;10809;49.476;11.016;2022-12-29T08:02:42;2.30;;;0.90;;
21299;SDS011;10809;49.476;11.016;2022-12-29T08:05:13;1.87;;;0.90;;
21299;SDS011;10809;49.476;11.016;2022-12-29T08:07:45;3.03;;;1.13;;
21299;SDS011;10809;49.476;11.016;2022-12-29T08:10:17;1.70;;;0.97;;
21299;SDS011;10809;49.476;11.016;2022-12-29T08:12:48;1.73;;;0.63;;
21299;SDS011;10809;49.476;11.016;2022-12-29T08:15:20;1.23;;;0.80;;
21299;SDS011;10809;49.476;11.016;2022-12-29T08:17:50;0.73;;;0.70;;
21299;SDS011;10809;49.476;11.016;2022-12-29T08:20:21;1.00;;;0.80;;
21299;SDS011;10809;49.476;11.016;2022-12-29T08:22:52;1.30;;;0.73;;
21299;SDS011;10809;49.476;11.016;2022-12-29T08:25:26;0.90;;;0.57;;
21299;SDS011;10809;49.476;11.016;2022-12-29T08:27:57;1.93;;;0.80;;
21299;SDS011;10809;49.476;11.016;2022-12-29T08:30:29;1.10;;;0.70;;
21299;SDS011;10809;49.476;11.016;2022-12-29T08:33:00;1.17;;;1.03;;
21299;SDS011;10809;49.476;11.016;2022-12-29T08:35:30;1.27;;;1.13;;
21299;SDS011;10809;49.476;11.016;2022-12-29T08:38:01;2.37;;;1.27;;
21299;SDS011;10809;49.476;11.016;2022-12-29T08:40:32;1.07;;;0.73;;
21299;SDS011;10809;49.476;11.016;2022-12-29T08:43:04;0.80;;;0.63;;
21299;SDS011;10809;49.476;11.016;2022-12-29T08:45:35;1.90;;;0.90;;
21299;SDS011;10809;49.476;11.016;2022-12-29T08:48:06;1.83;;;0.60;;
21299;SDS011;10809;49.476;11.016;2022-12-29T08:50:36;0.70;;;0.70;;
21299;SDS011;10809;49.476;11.016;2022-12-29T08:53:07;1.03;;;0.60;;
21299;SDS011;10809;49.476;11.016;2022-12-29T08:55:37;2.30;;;0.80;;
21299;SDS011;10809;49.476;11.016;2022-12-29T08:58:08;1.13;;;0.57;;
21299;SDS011;10809;49.476;11.016;2022-12-29T09:00:42;0.47;;;0.47;;
21299;SDS011;10809;49.476;11.016;2022-12-29T09:03:14;2.63;;;0.73;;
21299;SDS011;10809;49.476;11.016;2022-12-29T09:05:50;1.23;;;0.80;;
21299;SDS011;10809;49.476;11.016;2022-12-29T09:08:22;0.87;;;0.87;;
21299;SDS011;10809;49.476;11.016;2022-12-29T09:10:52;0.83;;;0.77;;
21299;SDS011;10809;49.476;11.016;2022-12-29T09:13:23;2.93;;;0.60;;
21299;SDS011;10809;49.476;11.016;2022-12-29T09:15:58;0.80;;;0.80;;
21299;SDS011;10809;49.476;11.016;2022-12-29T09:18:30;0.80;;;0.80;;
21299;SDS011;10809;49.476;11.016;2022-12-29T09:21:02;0.97;;;0.60;;
21299;SDS011;10809;49.476;11.016;2022-12-29T09:23:35;0.50;;;0.50;;
21299;SDS011;10809;49.476;11.016;2022-12-29T09:26:07;2.47;;;0.50;;
21299;SDS011;10809;49.476;11.016;2022-12-29T09:28:40;1.37;;;0.80;;
21299;SDS011;10809;49.476;11.016;2022-12-29T09:31:11;1.10;;;0.70;;
21299;SDS011;10809;49.476;11.016;2022-12-29T09:33:42;0.70;;;0.70;;
21299;SDS011;10809;49.476;11.016;2022-12-29T09:36:16;0.97;;;0.57;;
21299;SDS011;10809;49.476;11.016;2022-12-29T09:38:47;0.90;;;0.67;;
21299;SDS011;10809;49.476;11.016;2022-12-29T09:41:20;1.20;;;0.80;;
21299;SDS011;10809;49.476;11.016;2022-12-29T09:44:04;2.83;;;0.73;;
21299;SDS011;10809;49.476;11.016;2022-12-29T09:46:47;0.97;;;0.87;;
21299;SDS011;10809;49.476;11.016;2022-12-29T09:51:53;2.13;;;0.77;;
21299;SDS011;10809;49.476;11.016;2022-12-29T10:00:22;1.57;;;0.60;;
21299;SDS011;10809;49.476;11.016;2022-12-29T10:03:14;1.20;;;0.80;;
21299;SDS011;10809;49.476;11.016;2022-12-29T10:05:48;2.07;;;1.00;;
21299;SDS011;10809;49.476;11.016;2022-12-29T10:08:39;1.20;;;0.80;;
21299;SDS011;10809;49.476;11.016;2022-12-29T10:17:25;1.67;;;0.70;;
21299;SDS011;10809;49.476;11.016;2022-12-29T10:25:33;5.87;;;1.60;;
21299;SDS011;10809;49.476;11.016;2022-12-29T10:28:52;3.20;;;1.50;;
21299;SDS011;10809;49.476;11.016;2022-12-29T10:31:10;4.30;;;1.37;;
21299;SDS011;10809;49.476;11.016;2022-12-29T10:33:53;3.47;;;1.80;;
21299;SDS011;10809;49.476;11.016;2022-12-29T10:36:39;3.40;;;1.67;;
21299;SDS011;10809;49.476;11.016;2022-12-29T10:39:15;2.80;;;1.83;;
21299;SDS011;10809;49.476;11.016;2022-12-29T10:42:14;3.10;;;1.37;;
21299;SDS011;10809;49.476;11.016;2022-12-29T10:44:51;1.97;;;1.43;;
21299;SDS011;10809;49.476;11.016;2022-12-29T10:47:25;3.10;;;1.53;;
21299;SDS011;10809;49.476;11.016;2022-12-29T10:50:00;1.70;;;1.23;;
21299;SDS011;10809;49.476;11.016;2022-12-29T10:52:32;3.63;;;1.23;;
21299;SDS011;10809;49.476;11.016;2022-12-29T10:55:08;1.73;;;0.90;;
21299;SDS011;10809;49.476;11.016;2022-12-29T10:57:49;1.53;;;0.93;;
21299;SDS011;10809;49.476;11.016;2022-12-29T11:00:23;3.17;;;1.30;;
21299;SDS011;10809;49.476;11.016;2022-12-29T11:03:01;1.70;;;1.20;;
21299;SDS011;10809;49.476;11.016;2022-12-29T11:08:30;1.30;;;1.00;;
21299;SDS011;10809;49.476;11.016;2022-12-29T11:11:11;2.57;;;1.30;;
21299;SDS011;10809;49.476;11.016;2022-12-29T11:13:49;3.37;;;1.13;;
21299;SDS011;10809;49.476;11.016;2022-12-29T11:16:30;2.67;;;1.30;;
21299;SDS011;10809;49.476;11.016;2022-12-29T11:19:04;3.97;;;1.33;;
21299;SDS011;10809;49.476;11.016;2022-12-29T11:21:37;3.13;;;0.77;;
21299;SDS011;10809;49.476;11.016;2022-12-29T11:26:54;2.80;;;1.10;;
21299;SDS011;10809;49.476;11.016;2022-12-29T11:29:39;1.63;;;1.00;;
21299;SDS011;10809;49.476;11.016;2022-12-29T11:34:53;2.77;;;1.07;;
21299;SDS011;10809;49.476;11.016;2022-12-29T11:37:31;3.40;;;1.40;;
21299;SDS011;10809;49.476;11.016;2022-12-29T11:40:18;4.37;;;1.13;;
21299;SDS011;10809;49.476;11.016;2022-12-29T11:42:51;2.83;;;1.30;;
21299;SDS011;10809;49.476;11.016;2022-12-29T11:45:35;3.10;;;1.10;;
21299;SDS011;10809;49.476;11.016;2022-12-29T11:48:08;3.00;;;1.23;;
21299;SDS011;10809;49.476;11.016;2022-12-29T11:50:51;1.97;;;1.00;;
21299;SDS011;10809;49.476;11.016;2022-12-29T11:53:41;1.57;;;1.23;;
21299;SDS011;10809;49.476;11.016;2022-12-29T11:56:32;1.30;;;1.07;;
21299;SDS011;10809;49.476;11.016;2022-12-29T12:05:10;1.73;;;1.23;;
21299;SDS011;10809;49.476;11.016;2022-12-29T12:07:56;4.63;;;1.73;;
21299;SDS011;10809;49.476;11.016;2022-12-29T12:10:38;1.23;;;0.90;;
21299;SDS011;10809;49.476;11.016;2022-12-29T12:13:20;1.43;;;0.93;;
21299;SDS011;10809;49.476;11.016;2022-12-29T12:15:59;3.77;;;1.00;;
21299;SDS011;10809;49.476;11.016;2022-12-29T12:19:34;3.57;;;0.80;;
21299;SDS011;10809;49.476;11.016;2022-12-29T12:22:12;1.33;;;1.07;;
21299;SDS011;10809;49.476;11.016;2022-12-29T12:30:20;0.80;;;0.80;;
21299;SDS011;10809;49.476;11.016;2022-12-29T12:38:55;2.00;;;0.70;;
21299;SDS011;10809;49.476;11.016;2022-12-29T12:41:43;1.00;;;0.90;;
21299;SDS011;10809;49.476;11.016;2022-12-29T12:44:29;2.30;;;0.73;;
21299;SDS011;10809;49.476;11.016;2022-12-29T12:53:03;1.37;;;0.80;;
21299;SDS011;10809;49.476;11.016;2022-12-29T13:01:41;5.73;;;1.30;;
21299;SDS011;10809;49.476;11.016;2022-12-29T13:13:29;0.93;;;0.90;;
21299;SDS011;10809;49.476;11.016;2022-12-29T13:16:35;1.33;;;1.23;;
21299;SDS011;10809;49.476;11.016;2022-12-29T13:19:31;2.40;;;0.80;;
21299;SDS011;10809;49.476;11.016;2022-12-29T13:22:17;1.60;;;0.73;;
21299;SDS011;10809;49.476;11.016;2022-12-29T13:25:27;2.63;;;1.13;;
21299;SDS011;10809;49.476;11.016;2022-12-29T13:33:30;1.17;;;0.83;;
21299;SDS011;10809;49.476;11.016;2022-12-29T13:36:20;3.07;;;0.97;;
21299;SDS011;10809;49.476;11.016;2022-12-29T13:39:04;1.20;;;0.80;;
21299;SDS011;10809;49.476;11.016;2022-12-29T13:41:44;1.50;;;1.10;;
21299;SDS011;10809;49.476;11.016;2022-12-29T13:44:42;2.13;;;1.00;;
21299;SDS011;10809;49.476;11.016;2022-12-29T13:47:30;2.03;;;1.27;;
21299;SDS011;10809;49.476;11.016;2022-12-29T13:50:17;1.00;;;0.80;;
21299;SDS011;10809;49.476;11.016;2022-12-29T13:53:08;1.00;;;0.90;;
21299;SDS011;10809;49.476;11.016;2022-12-29T13:56:07;0.97;;;0.93;;
21299;SDS011;10809;49.476;11.016;2022-12-29T13:58:57;2.43;;;0.90;;
21299;SDS011;10809;49.476;11.016;2022-12-29T14:01:38;2.87;;;1.53;;
21299;SDS011;10809;49.476;11.016;2022-12-29T14:04:24;1.40;;;1.00;;
21299;SDS011;10809;49.476;11.016;2022-12-29T14:07:01;1.60;;;1.20;;
21299;SDS011;10809;49.476;11.016;2022-12-29T14:09:53;2.43;;;1.20;;
21299;SDS011;10809;49.476;11.016;2022-12-29T14:12:27;4.40;;;1.00;;
21299;SDS011;10809;49.476;11.016;2022-12-29T14:15:23;4.93;;;1.43;;
21299;SDS011;10809;49.476;11.016;2022-12-29T14:18:04;2.30;;;1.50;;
21299;SDS011;10809;49.476;11.016;2022-12-29T14:20:57;1.33;;;0.97;;
21299;SDS011;10809;49.476;11.016;2022-12-29T14:28:44;2.73;;;1.37;;
21299;SDS011;10809;49.476;11.016;2022-12-29T14:36:36;3.33;;;1.33;;
21299;SDS011;10809;49.476;11.016;2022-12-29T14:42:03;3.83;;;1.70;;
21299;SDS011;10809;49.476;11.016;2022-12-29T14:45:22;2.33;;;1.93;;
21299;SDS011;10809;49.476;11.016;2022-12-29T14:47:44;3.87;;;1.50;;
21299;SDS011;10809;49.476;11.016;2022-12-29T14:50:23;1.77;;;1.20;;
21299;SDS011;10809;49.476;11.016;2022-12-29T14:53:03;1.83;;;1.00;;
21299;SDS011;10809;49.476;11.016;2022-12-29T14:55:40;1.90;;;1.00;;
21299;SDS011;10809;49.476;11.016;2022-12-29T15:00:50;2.30;;;0.77;;
21299;SDS011;10809;49.476;11.016;2022-12-29T15:05:55;1.67;;;0.80;;
21299;SDS011;10809;49.476;11.016;2022-12-29T15:08:30;1.73;;;1.37;;
21299;SDS011;10809;49.476;11.016;2022-12-29T15:11:11;1.80;;;1.10;;
21299;SDS011;10809;49.476;11.016;2022-12-29T15:13:44;1.47;;;1.00;;
21299;SDS011;10809;49.476;11.016;2022-12-29T15:18:56;0.60;;;0.60;;
21299;SDS011;10809;49.476;11.016;2022-12-29T15:21:27;2.00;;;1.10;;
21299;SDS011;10809;49.476;11.016;2022-12-29T15:24:00;2.80;;;1.27;;
21299;SDS011;10809;49.476;11.016;2022-12-29T15:26:40;2.10;;;1.73;;
21299;SDS011;10809;49.476;11.016;2022-12-29T15:32:18;1.53;;;1.20;;
21299;SDS011;10809;49.476;11.016;2022-12-29T15:34:55;2.33;;;1.70;;
21299;SDS011;10809;49.476;11.016;2022-12-29T15:37:34;3.27;;;1.27;;
21299;SDS011;10809;49.476;11.016;2022-12-29T15:40:19;2.30;;;1.50;;
21299;SDS011;10809;49.476;11.016;2022-12-29T15:45:47;2.53;;;1.83;;
21299;SDS011;10809;49.476;11.016;2022-12-29T15:48:21;2.03;;;1.50;;
21299;SDS011;10809;49.476;11.016;2022-12-29T15:50:53;2.77;;;1.70;;
21299;SDS011;10809;49.476;11.016;2022-12-29T15:53:26;3.23;;;2.10;;
21299;SDS011;10809;49.476;11.016;2022-12-29T15:56:06;3.57;;;1.83;;
21299;SDS011;10809;49.476;11.016;2022-12-29T15:58:41;2.53;;;1.43;;
21299;SDS011;10809;49.476;11.016;2022-12-29T16:04:01;3.03;;;1.53;;
21299;SDS011;10809;49.476;11.016;2022-12-29T16:06:35;2.57;;;1.53;;
21299;SDS011;10809;49.476;11.016;2022-12-29T16:09:17;4.33;;;1.70;;
21299;SDS011;10809;49.476;11.016;2022-12-29T16:11:51;2.03;;;1.10;;
21299;SDS011;10809;49.476;11.016;2022-12-29T16:14:30;5.13;;;1.70;;
21299;SDS011;10809;49.476;11.016;2022-12-29T16:17:04;2.93;;;1.40;;
21299;SDS011;10809;49.476;11.016;2022-12-29T16:19:35;3.03;;;1.20;;
21299;SDS011;10809;49.476;11.016;2022-12-29T16:22:10;5.73;;;1.40;;
21299;SDS011;10809;49.476;11.016;2022-12-29T16:24:42;4.53;;;1.30;;
21299;SDS011;10809;49.476;11.016;2022-12-29T16:27:22;4.13;;;1.37;;
21299;SDS011;10809;49.476;11.016;2022-12-29T16:30:03;3.87;;;1.50;;
21299;SDS011;10809;49.476;11.016;2022-12-29T16:32:44;1.27;;;1.17;;
21299;SDS011;10809;49.476;11.016;2022-12-29T16:35:20;1.43;;;1.30;;
21299;SDS011;10809;49.476;11.016;2022-12-29T16:41:06;1.83;;;1.50;;
21299;SDS011;10809;49.476;11.016;2022-12-29T16:43:35;1.87;;;1.30;;
21299;SDS011;10809;49.476;11.016;2022-12-29T16:46:19;1.37;;;1.23;;
21299;SDS011;10809;49.476;11.016;2022-12-29T16:48:56;2.33;;;1.00;;
21299;SDS011;10809;49.476;11.016;2022-12-29T16:54:02;1.67;;;1.17;;
21299;SDS011;10809;49.476;11.016;2022-12-29T16:56:34;1.57;;;1.47;;
21299;SDS011;10809;49.476;11.016;2022-12-29T16:59:18;2.30;;;1.00;;
21299;SDS011;10809;49.476;11.016;2022-12-29T17:01:56;1.77;;;1.13;;
21299;SDS011;10809;49.476;11.016;2022-12-29T17:04:29;1.37;;;1.00;;
21299;SDS011;10809;49.476;11.016;2022-12-29T17:06:59;2.77;;;1.33;;
21299;SDS011;10809;49.476;11.016;2022-12-29T17:09:30;2.53;;;1.30;;
21299;SDS011;10809;49.476;11.016;2022-12-29T17:12:00;2.43;;;1.10;;
21299;SDS011;10809;49.476;11.016;2022-12-29T17:14:36;2.03;;;1.40;;
21299;SDS011;10809;49.476;11.016;2022-12-29T17:17:25;1.63;;;1.47;;
21299;SDS011;10809;49.476;11.016;2022-12-29T17:20:05;4.33;;;2.77;;
21299;SDS011;10809;49.476;11.016;2022-12-29T17:22:44;10.63;;;4.00;;
21299;SDS011;10809;49.476;11.016;2022-12-29T17:25:17;12.90;;;3.80;;
21299;SDS011;10809;49.476;11.016;2022-12-29T17:28:00;4.43;;;2.17;;
21299;SDS011;10809;49.476;11.016;2022-12-29T17:30:33;3.40;;;2.00;;
21299;SDS011;10809;49.476;11.016;2022-12-29T17:33:05;3.30;;;2.07;;
21299;SDS011;10809;49.476;11.016;2022-12-29T17:35:39;2.67;;;1.87;;
21299;SDS011;10809;49.476;11.016;2022-12-29T17:38:17;1.97;;;1.30;;
21299;SDS011;10809;49.476;11.016;2022-12-29T17:40:49;2.30;;;1.50;;
21299;SDS011;10809;49.476;11.016;2022-12-29T17:43:20;2.13;;;1.60;;
21299;SDS011;10809;49.476;11.016;2022-12-29T17:45:52;2.43;;;1.30;;
21299;SDS011;10809;49.476;11.016;2022-12-29T17:48:24;1.47;;;1.00;;
21299;SDS011;10809;49.476;11.016;2022-12-29T17:50:54;5.40;;;1.50;;